Time;durP1;ratioP1;P1;durP2;ratioP2;P2;SDS_P1;SDS_P2;PMS_P1;PMS_P2;Temp;Humidity;BMP_temperature;BMP_pressure;BME280_temperature;BME280_humidity;BME280_pressure;Samples;Min_cycle;Max_cycle;Signal;HPM_P1;HPM_P2
2022/11/03 00:01:58;;;;;;;9.88;3.60;;;;;;;10.21;88.27;101228.50;1791010;78;27443;-79
2022/11/03 00:04:25;;;;;;;9.48;3.85;;;;;;;10.19;88.35;101229.66;1782950;79;25850;-79
2022/11/03 00:06:54;;;;;;;10.88;4.03;;;;;;;10.20;88.29;101235.38;1787171;79;25805;-79
2022/11/03 00:09:22;;;;;;;8.80;3.83;;;;;;;10.19;88.35;101237.70;1787587;78;26142;-80
2022/11/03 00:11:50;;;;;;;9.53;3.65;;;;;;;10.16;87.98;101231.36;1794828;78;25599;-78
2022/11/03 00:14:17;;;;;;;10.35;4.15;;;;;;;10.11;88.04;101235.88;1794468;78;27468;-78
2022/11/03 00:16:44;;;;;;;13.55;4.12;;;;;;;10.09;87.99;101230.64;1773543;79;25781;-80
2022/11/03 00:19:12;;;;;;;16.12;4.17;;;;;;;10.05;87.87;101239.20;1787035;79;25816;-80
2022/11/03 00:21:38;;;;;;;26.10;5.10;;;;;;;10.03;87.92;101234.48;1782297;79;25804;-80
2022/11/03 00:24:05;;;;;;;9.70;4.28;;;;;;;10.01;88.01;101237.83;1786618;78;25939;-79
2022/11/03 00:26:34;;;;;;;9.38;4.60;;;;;;;10.00;87.87;101242.87;1778464;79;27514;-79
2022/11/03 00:29:07;;;;;;;12.93;4.00;;;;;;;9.98;87.85;101239.53;1787718;79;26455;-80
2022/11/03 00:31:36;;;;;;;10.00;4.20;;;;;;;9.94;87.60;101240.34;1790236;78;26356;-79
2022/11/03 00:34:04;;;;;;;10.72;4.03;;;;;;;9.90;87.62;101235.52;1776414;79;25736;-79
2022/11/03 00:36:39;;;;;;;7.08;3.87;;;;;;;9.87;87.58;101243.86;1784787;78;26229;-80
2022/11/03 00:39:07;;;;;;;12.33;4.75;;;;;;;9.85;87.66;101240.52;1775122;78;26732;-79
2022/11/03 00:41:33;;;;;;;11.30;3.92;;;;;;;9.83;87.74;101239.85;1786409;78;25720;-79
2022/11/03 00:44:00;;;;;;;8.93;4.67;;;;;;;9.82;87.58;101240.84;1785601;78;25899;-80
2022/11/03 00:46:29;;;;;;;8.85;3.83;;;;;;;9.78;87.66;101243.52;1789077;78;25742;-79
2022/11/03 00:48:55;;;;;;;11.17;5.20;;;;;;;9.74;87.59;101239.50;1770855;79;25958;-79
2022/11/03 00:51:26;;;;;;;7.87;3.65;;;;;;;9.73;87.68;101240.00;1785467;78;27446;-80
2022/11/03 00:53:55;;;;;;;;;;;;;;;9.71;87.63;101242.00;1807976;78;26419;-78
2022/11/03 00:56:30;;;;;;;9.10;4.53;;;;;;;9.68;87.61;101246.86;1790118;78;25703;-79
2022/11/03 00:58:58;;;;;;;11.40;4.55;;;;;;;9.64;87.82;101245.52;1779904;78;26342;-79
2022/11/03 01:01:30;;;;;;;6.97;4.37;;;;;;;9.63;87.93;101237.98;1788372;78;25793;-81
2022/11/03 01:06:49;;;;;;;13.70;4.53;;;;;;;9.58;87.86;101243.51;1777789;78;25938;-79
2022/11/03 01:09:23;;;;;;;11.60;4.72;;;;;;;9.57;88.07;101233.30;1780893;78;25268;-80
2022/11/03 01:11:55;;;;;;;14.33;5.53;;;;;;;9.57;88.28;101245.34;1781639;78;25886;-81
2022/11/03 01:14:22;;;;;;;13.18;5.40;;;;;;;9.58;88.26;101237.63;1777928;78;25832;-79
2022/11/03 01:16:48;;;;;;;15.35;6.55;;;;;;;9.56;88.21;101243.66;1790677;78;27435;-79
2022/11/03 01:19:14;;;;;;;12.28;6.37;;;;;;;9.55;88.15;101254.03;1787921;78;25784;-79
2022/11/03 01:21:42;;;;;;;16.48;6.45;;;;;;;9.50;88.23;101259.52;1799667;78;25801;-79
2022/11/03 01:24:08;;;;;;;10.80;5.95;;;;;;;9.50;88.32;101253.67;1804692;78;26603;-80
2022/11/03 01:26:35;;;;;;;13.88;6.78;;;;;;;9.48;88.33;101254.83;1775186;78;26356;-78
2022/11/03 01:29:01;;;;;;;15.78;6.33;;;;;;;9.45;88.37;101256.02;1774791;79;27457;-80
2022/11/03 01:31:28;;;;;;;13.85;6.78;;;;;;;9.42;88.40;101264.84;1780608;78;25853;-79
2022/11/03 01:33:55;;;;;;;20.20;7.08;;;;;;;9.39;88.52;101261.99;1775761;79;26433;-79
2022/11/03 01:36:22;;;;;;;10.55;6.90;;;;;;;9.38;88.67;101259.50;1778606;79;25716;-78
2022/11/03 01:38:48;;;;;;;12.40;6.47;;;;;;;9.35;88.70;101259.31;1788042;78;26154;-80
2022/11/03 01:41:22;;;;;;;13.40;6.65;;;;;;;9.33;88.76;101258.64;1787010;78;27447;-80
2022/11/03 01:44:13;;;;;;;13.40;7.08;;;;;;;9.34;88.82;101263.00;1759993;80;26496;-79
2022/11/03 01:46:56;;;;;;;15.88;7.87;;;;;;;9.29;88.75;101263.98;1800590;78;25807;-80
2022/11/03 01:49:47;;;;;;;15.08;7.47;;;;;;;9.23;88.94;101267.30;1765452;78;26677;-79
2022/11/03 01:52:40;;;;;;;17.40;8.30;;;;;;;9.21;89.14;101258.61;1788182;78;25825;-80
2022/11/03 01:55:11;;;;;;;16.80;7.97;;;;;;;9.18;89.28;101261.10;1784758;78;27427;-78
2022/11/03 01:57:46;;;;;;;16.55;8.85;;;;;;;9.17;89.45;101263.95;1786369;78;26427;-79
2022/11/03 02:00:13;;;;;;;16.55;7.83;;;;;;;9.16;89.52;101257.76;1785367;79;25826;-79
2022/11/03 02:02:42;;;;;;;17.05;8.75;;;;;;;9.13;89.40;101259.92;1785234;78;26486;-79
2022/11/03 02:05:11;;;;;;;16.37;8.80;;;;;;;9.12;89.60;101267.59;1775516;79;25339;-79
2022/11/03 02:08:04;;;;;;;16.82;9.35;;;;;;;9.12;89.67;101254.23;1807939;78;47421;-79
2022/11/03 02:10:31;;;;;;;21.73;9.98;;;;;;;9.09;89.63;101258.55;1776450;78;25818;-79
2022/11/03 02:12:58;;;;;;;22.40;11.15;;;;;;;9.02;89.69;101261.05;1833562;77;25460;-78
2022/11/03 02:15:25;;;;;;;26.27;11.78;;;;;;;9.00;89.82;101259.53;1819545;77;25706;-80
2022/11/03 02:17:53;;;;;;;24.02;10.15;;;;;;;8.99;89.85;101252.50;1801755;77;25322;-79
2022/11/03 02:20:27;;;;;;;19.73;9.50;;;;;;;8.96;89.83;101252.84;1828395;77;27452;-79
2022/11/03 02:23:32;;;;;;;21.90;10.08;;;;;;;8.95;90.06;101259.17;1817785;77;25733;-79
2022/11/03 02:25:59;;;;;;;24.90;11.00;;;;;;;8.94;90.13;101262.33;1821164;77;25837;-79
2022/11/03 02:28:29;;;;;;;19.40;10.30;;;;;;;8.93;90.15;101264.68;1826980;77;26449;-79
2022/11/03 02:31:10;;;;;;;20.50;10.30;;;;;;;8.90;90.16;101266.32;1810272;77;25692;-79
2022/11/03 02:34:02;;;;;;;20.25;10.68;;;;;;;8.89;90.26;101271.34;1817537;78;26923;-78
2022/11/03 02:36:52;;;;;;;27.85;11.00;;;;;;;8.85;90.17;101271.33;1817390;77;26474;-78
2022/11/03 02:39:32;;;;;;;24.20;10.63;;;;;;;8.81;90.19;101267.80;1828582;77;25740;-78
2022/11/03 02:42:02;;;;;;;18.35;11.22;;;;;;;8.80;90.28;101269.62;1817513;77;25835;-79
2022/11/03 02:44:31;;;;;;;18.87;9.63;;;;;;;8.75;90.30;101266.58;1795683;78;25851;-78
2022/11/03 02:47:03;;;;;;;24.82;10.43;;;;;;;8.72;90.26;101267.41;1764525;78;27439;-79
2022/11/03 02:49:29;;;;;;;24.20;11.28;;;;;;;8.69;90.41;101267.22;1805869;78;25771;-78
2022/11/03 02:52:05;;;;;;;21.65;10.05;;;;;;;8.71;90.59;101267.05;1806800;78;25846;-79
2022/11/03 02:54:37;;;;;;;20.27;10.48;;;;;;;8.72;90.58;101268.25;1812080;78;25724;-78
2022/11/03 02:57:18;;;;;;;19.02;9.78;;;;;;;8.69;90.57;101275.23;1819214;77;25932;-79
2022/11/03 02:59:50;;;;;;;20.15;11.03;;;;;;;8.68;90.47;101276.73;1799795;77;27511;-78
2022/11/03 03:02:21;;;;;;;22.80;10.63;;;;;;;8.65;90.41;101280.55;1811768;77;25739;-79
2022/11/03 03:04:52;;;;;;;18.42;9.40;;;;;;;8.62;90.45;101278.70;1805323;77;25748;-79
2022/11/03 03:07:26;;;;;;;20.20;9.95;;;;;;;8.62;90.55;101282.70;1775822;78;25692;-80
2022/11/03 03:10:01;;;;;;;18.65;9.28;;;;;;;8.62;90.65;101278.70;1810459;77;25937;-78
2022/11/03 03:12:30;;;;;;;20.45;10.18;;;;;;;8.63;90.58;101276.36;1814445;77;27476;-78
2022/11/03 03:14:58;;;;;;;17.80;9.60;;;;;;;8.61;90.58;101284.53;1812855;77;25783;-78
2022/11/03 03:17:38;;;;;;;19.05;9.83;;;;;;;8.61;90.55;101283.69;1774736;78;25915;-78
2022/11/03 03:20:13;;;;;;;19.73;9.85;;;;;;;8.57;90.57;101286.34;1770368;79;25820;-79
2022/11/03 03:22:54;;;;;;;17.62;10.20;;;;;;;8.53;90.61;101287.97;1781230;78;26539;-79
2022/11/03 03:25:29;;;;;;;;;;;;;;;8.51;90.62;101287.81;1796123;78;27437;-78
2022/11/03 03:28:09;;;;;;;22.50;9.70;;;;;;;8.47;90.73;101288.60;1780143;78;25716;-79
2022/11/03 03:30:36;;;;;;;19.10;9.90;;;;;;;8.46;90.95;101293.62;1776869;78;26147;-79
2022/11/03 03:33:06;;;;;;;19.30;9.98;;;;;;;8.48;90.89;101292.12;1783425;78;25823;-78
2022/11/03 03:35:35;;;;;;;15.50;9.85;;;;;;;8.46;90.79;101290.95;1801933;78;25928;-79
2022/11/03 03:38:10;;;;;;;16.85;9.43;;;;;;;8.46;90.77;101298.95;1796402;78;27469;-79
2022/11/03 03:40:39;;;;;;;19.70;9.45;;;;;;;8.42;90.76;101299.42;1807467;78;25781;-78
2022/11/03 03:43:08;;;;;;;17.40;9.35;;;;;;;8.41;90.83;101303.91;1770023;78;25881;-78
2022/11/03 03:45:36;;;;;;;17.85;9.35;;;;;;;8.37;90.73;101306.56;1787955;78;25838;-79
2022/11/03 03:48:04;;;;;;;24.47;9.85;;;;;;;8.36;90.71;101310.20;1799864;78;25771;-78
2022/11/03 03:50:35;;;;;;;19.37;9.70;;;;;;;8.34;90.74;101309.52;1794702;78;27444;-78
2022/11/03 03:53:07;;;;;;;;;;;;;;;8.29;90.84;101302.98;1796207;78;25779;-78
2022/11/03 03:55:38;;;;;;;21.15;10.03;;;;;;;8.27;90.89;101307.64;1795708;78;26168;-78
2022/11/03 03:58:06;;;;;;;21.35;10.45;;;;;;;8.22;91.08;101301.89;1828104;77;25770;-79
2022/11/03 04:00:32;;;;;;;20.75;9.90;;;;;;;8.22;91.08;101303.22;1789401;78;25940;-78
2022/11/03 04:02:59;;;;;;;20.70;10.50;;;;;;;8.20;91.06;101309.21;1820349;77;28610;-79
2022/11/03 04:05:27;;;;;;;20.70;11.70;;;;;;;8.17;91.03;101310.88;1814113;77;25746;-79
2022/11/03 04:07:53;;;;;;;19.27;10.00;;;;;;;8.15;91.15;101304.82;1830373;77;25769;-78
2022/11/03 04:10:21;;;;;;;21.52;11.33;;;;;;;8.15;91.12;101304.33;1820962;77;25672;-79
2022/11/03 04:23:45;;;;;;;21.35;10.38;;;;;;;8.06;91.27;101309.25;1816154;77;25915;-79
2022/11/03 04:26:15;;;;;;;17.05;9.43;;;;;;;8.03;91.23;101310.91;1817524;77;25709;-78
2022/11/03 04:28:43;;;;;;;19.12;9.35;;;;;;;8.01;91.17;101310.71;1815369;77;28271;-78
2022/11/03 04:31:12;;;;;;;15.08;9.93;;;;;;;7.99;91.22;101309.55;1822611;77;25814;-79
2022/11/03 04:33:40;;;;;;;15.48;9.83;;;;;;;7.99;91.32;101316.70;1822025;77;26329;-79
2022/11/03 04:36:17;;;;;;;17.35;9.23;;;;;;;7.97;91.22;101318.19;1834407;77;26212;-78
2022/11/03 04:38:44;;;;;;;19.35;10.40;;;;;;;7.91;91.14;101312.63;1818202;77;25934;-78
2022/11/03 04:41:30;;;;;;;19.12;9.83;;;;;;;7.87;91.27;101316.59;1818243;77;28656;-79
2022/11/03 04:43:56;;;;;;;17.42;9.20;;;;;;;7.84;91.38;101315.06;1824474;77;25702;-79
2022/11/03 04:46:28;;;;;;;17.23;9.33;;;;;;;7.82;91.65;101314.38;1833879;77;25835;-78
2022/11/03 04:48:58;;;;;;;15.38;8.73;;;;;;;7.84;91.65;101315.55;1814100;77;26226;-79
2022/11/03 04:51:29;;;;;;;17.67;9.35;;;;;;;7.83;91.71;101314.70;1817392;77;26341;-78
2022/11/03 04:54:02;;;;;;;17.25;9.00;;;;;;;7.82;91.83;101317.53;1814264;77;27394;-78
2022/11/03 04:56:29;;;;;;;16.65;9.38;;;;;;;7.85;91.94;101314.58;1810878;77;25806;-79
2022/11/03 04:58:57;;;;;;;19.05;9.35;;;;;;;7.87;91.87;101308.59;1820425;77;25780;-79
2022/11/03 05:01:24;;;;;;;17.80;10.00;;;;;;;7.86;91.99;101302.41;1814853;77;25866;-78
2022/11/03 05:03:53;;;;;;;17.35;10.08;;;;;;;7.90;91.94;101306.94;1822055;77;25814;-79
2022/11/03 05:06:29;;;;;;;20.60;9.88;;;;;;;7.91;91.73;101305.95;1802544;77;28325;-79
2022/11/03 05:09:02;;;;;;;17.17;10.15;;;;;;;7.90;91.63;101306.45;1812367;77;26511;-78
2022/11/03 05:11:38;;;;;;;17.85;9.70;;;;;;;7.91;91.60;101309.96;1821984;77;25767;-79
2022/11/03 05:14:29;;;;;;;18.05;9.50;;;;;;;7.88;91.45;101313.77;1816237;77;25726;-79
2022/11/03 05:16:57;;;;;;;19.13;10.57;;;;;;;7.88;91.49;101314.25;1813276;77;25952;-79
2022/11/03 05:19:33;;;;;;;17.30;9.33;;;;;;;7.85;91.38;101316.72;1815394;77;27289;-78
2022/11/03 05:22:02;;;;;;;20.92;10.08;;;;;;;7.84;91.52;101325.73;1803125;78;26304;-78
2022/11/03 05:24:30;;;;;;;19.37;9.25;;;;;;;7.83;91.50;101325.37;1811277;77;25742;-79
2022/11/03 05:26:59;;;;;;;19.65;9.75;;;;;;;7.82;91.53;101322.38;1813117;77;25861;-78
2022/11/03 05:29:34;;;;;;;18.87;9.38;;;;;;;7.81;91.55;101326.02;1818856;77;25836;-78
2022/11/03 05:32:00;;;;;;;14.70;8.93;;;;;;;7.79;91.46;101332.00;1831543;77;27469;-78
2022/11/03 05:34:35;;;;;;;17.75;8.83;;;;;;;7.73;91.36;101327.28;1825366;77;25832;-78
2022/11/03 05:37:16;;;;;;;18.90;10.25;;;;;;;7.70;91.51;101332.41;1807431;77;25836;-78
2022/11/03 05:39:47;;;;;;;18.70;10.05;;;;;;;7.68;91.64;101341.05;1810078;77;25766;-79
2022/11/03 05:42:34;;;;;;;19.55;9.93;;;;;;;7.67;91.66;101335.88;1807928;77;25851;-79
2022/11/03 05:45:17;;;;;;;17.05;8.95;;;;;;;7.67;91.64;101337.22;1820671;77;27444;-79
2022/11/03 05:47:44;;;;;;;18.48;8.85;;;;;;;7.62;91.54;101341.66;1813351;77;25949;-79
2022/11/03 05:50:23;;;;;;;19.90;9.55;;;;;;;7.58;91.66;101342.95;1820848;77;25749;-78
2022/11/03 05:53:02;;;;;;;18.75;9.60;;;;;;;7.56;91.85;101342.75;1831585;77;26418;-79
2022/11/03 05:55:34;;;;;;;17.42;9.35;;;;;;;7.54;92.11;101341.58;1784305;78;25766;-78
2022/11/03 05:58:24;;;;;;;17.10;9.13;;;;;;;7.56;92.10;101346.27;1826892;77;28111;-78
2022/11/03 06:00:50;;;;;;;15.63;9.55;;;;;;;7.57;92.12;101344.44;1826194;77;25922;-78
2022/11/03 06:05:56;;;;;;;15.75;10.40;;;;;;;7.63;92.30;101336.66;1833193;77;25701;-79
2022/11/03 06:08:34;;;;;;;15.28;8.48;;;;;;;7.64;92.31;101342.83;1820527;77;25991;-79
2022/11/03 06:11:03;;;;;;;19.20;10.40;;;;;;;7.65;92.21;101347.20;1825567;77;27450;-79
2022/11/03 06:13:38;;;;;;;19.45;9.38;;;;;;;7.64;92.17;101348.17;1823934;77;25929;-78
2022/11/03 06:16:13;;;;;;;26.00;9.85;;;;;;;7.63;92.16;101346.51;1833138;77;25775;-78
2022/11/03 06:18:40;;;;;;;26.30;9.65;;;;;;;7.64;92.17;101347.68;1823949;77;25821;-78
2022/11/03 06:21:20;;;;;;;20.15;9.13;;;;;;;7.67;92.22;101350.06;1812771;78;25820;-78
2022/11/03 06:23:46;;;;;;;19.23;10.00;;;;;;;7.68;92.24;101355.72;1820145;78;27527;-78
2022/11/03 06:26:22;;;;;;;19.35;9.70;;;;;;;7.72;92.32;101347.77;1816360;78;26539;-78
2022/11/03 06:28:49;;;;;;;20.43;9.60;;;;;;;7.74;92.30;101352.45;1809759;78;26510;-80
2022/11/03 06:31:27;;;;;;;18.92;8.95;;;;;;;7.78;92.20;101361.83;1817890;78;26445;-79
2022/11/03 06:33:57;;;;;;;17.95;9.05;;;;;;;7.81;92.13;101352.69;1808059;78;25737;-79
2022/11/03 06:36:36;;;;;;;21.77;8.45;;;;;;;7.82;92.04;101358.38;1815546;78;27104;-79
2022/11/03 06:39:09;;;;;;;14.45;8.75;;;;;;;7.84;92.03;101363.55;1796135;78;25777;-79
2022/11/03 06:41:36;;;;;;;17.55;9.00;;;;;;;7.85;92.04;101363.92;1815613;78;25814;-79
2022/11/03 06:44:24;;;;;;;18.98;9.23;;;;;;;7.87;92.09;101370.75;1842734;76;26491;-80
2022/11/03 06:47:01;;;;;;;16.12;9.03;;;;;;;7.87;92.12;101369.42;1807500;78;26356;-81
2022/11/03 06:49:34;;;;;;;19.12;10.78;;;;;;;7.89;92.22;101374.62;1846829;76;27632;-80
2022/11/03 06:52:29;;;;;;;22.25;10.58;;;;;;;7.92;92.38;101372.48;1808049;78;25863;-80
2022/11/03 06:55:13;;;;;;;17.15;9.15;;;;;;;7.92;92.35;101366.30;1816403;78;25812;-80
2022/11/03 06:57:42;;;;;;;20.65;9.10;;;;;;;7.95;92.45;101364.68;1808525;78;26482;-79
2022/11/03 07:00:30;;;;;;;17.70;10.95;;;;;;;7.96;92.50;101365.86;1824114;78;26212;-79
2022/11/03 07:03:14;;;;;;;17.80;9.85;;;;;;;7.98;92.67;101368.36;1813774;78;27447;-80
2022/11/03 07:05:44;;;;;;;19.32;10.98;;;;;;;8.00;92.75;101363.74;1815544;78;26534;-80
2022/11/03 07:08:27;;;;;;;17.75;10.18;;;;;;;8.04;92.94;101365.92;1813763;78;25774;-80
2022/11/03 07:11:20;;;;;;;20.57;11.45;;;;;;;8.07;92.93;101368.30;1820210;78;26314;-80
2022/11/03 07:13:52;;;;;;;15.32;10.20;;;;;;;8.11;92.99;101374.17;1808787;78;25994;-80
2022/11/03 07:16:32;;;;;;;16.40;10.15;;;;;;;8.15;93.06;101371.53;1815781;78;28356;-79
2022/11/03 07:19:01;;;;;;;18.32;10.08;;;;;;;8.18;92.95;101362.75;1821777;78;25745;-79
2022/11/03 07:21:35;;;;;;;18.35;10.90;;;;;;;8.22;93.11;101368.61;1817558;78;25320;-80
2022/11/03 07:24:16;;;;;;;21.27;10.00;;;;;;;8.28;93.08;101366.20;1807152;77;26519;-80
2022/11/03 07:26:42;;;;;;;21.77;11.70;;;;;;;8.32;93.13;101358.23;1829516;77;25781;-80
2022/11/03 07:29:20;;;;;;;19.42;11.12;;;;;;;8.33;92.97;101354.58;1827822;77;27440;-80
2022/11/03 07:31:48;;;;;;;22.87;12.95;;;;;;;8.37;93.03;101357.77;1819920;77;25799;-80
2022/11/03 07:34:19;;;;;;;22.98;11.93;;;;;;;8.41;93.12;101355.13;1834835;76;25817;-80
2022/11/03 07:36:46;;;;;;;18.40;11.18;;;;;;;8.45;93.20;101356.49;1837494;75;25994;-80
2022/11/03 07:39:17;;;;;;;17.57;11.22;;;;;;;8.47;92.95;101355.34;1842074;75;26363;-80
2022/11/03 07:41:44;;;;;;;19.95;11.60;;;;;;;8.47;92.84;101351.83;1839784;75;27484;-79
2022/11/03 07:44:19;;;;;;;25.88;13.20;;;;;;;8.49;92.93;101347.17;1838878;75;25716;-79
2022/11/03 07:46:48;;;;;;;19.67;12.90;;;;;;;8.52;92.86;101350.39;1835548;77;26101;-79
2022/11/03 07:49:27;;;;;;;25.30;13.70;;;;;;;8.53;92.92;101348.05;1832084;76;25954;-79
2022/11/03 07:51:56;;;;;;;23.25;11.33;;;;;;;8.57;92.96;101347.75;1833117;76;25978;-80
2022/11/03 07:54:29;;;;;;;18.00;11.40;;;;;;;8.62;92.98;101357.48;1811111;77;28295;-81
2022/11/03 07:57:00;;;;;;;19.35;11.85;;;;;;;8.67;93.09;101357.34;1834035;76;25948;-80
2022/11/03 07:59:41;;;;;;;15.18;10.40;;;;;;;8.73;93.23;101354.05;1808478;77;26059;-80
2022/11/03 08:02:39;;;;;;;19.42;11.30;;;;;;;8.77;93.11;101344.72;1808226;78;26117;-80
2022/11/03 08:05:06;;;;;;;21.17;11.55;;;;;;;8.83;93.12;101350.76;1801517;78;26358;-79
2022/11/03 08:07:32;;;;;;;20.85;11.00;;;;;;;8.88;93.20;101351.14;1797296;78;27515;-80
2022/11/03 08:09:58;;;;;;;17.90;9.98;;;;;;;8.94;93.25;101349.17;1793772;78;26597;-80
2022/11/03 08:12:25;;;;;;;19.23;10.28;;;;;;;8.99;93.09;101347.36;1796254;78;26609;-80
2022/11/03 08:14:51;;;;;;;17.85;9.90;;;;;;;9.03;93.03;101351.39;1799095;78;25908;-80
2022/11/03 08:17:17;;;;;;;15.95;10.23;;;;;;;9.10;93.01;101346.60;1801641;78;26501;-80
2022/11/03 08:19:44;;;;;;;22.60;11.20;;;;;;;9.13;92.71;101348.13;1790225;78;27876;-79
2022/11/03 08:22:10;;;;;;;24.02;10.30;;;;;;;9.17;92.52;101341.46;1796764;78;25923;-79
2022/11/03 08:24:37;;;;;;;21.25;9.80;;;;;;;9.21;92.29;101344.15;1795293;78;25841;-81
2022/11/03 08:27:03;;;;;;;15.48;9.33;;;;;;;9.25;92.21;101334.81;1797174;78;25911;-81
2022/11/03 08:29:30;;;;;;;18.25;10.30;;;;;;;9.29;92.17;101332.15;1807456;77;25729;-79
2022/11/03 08:31:56;;;;;;;15.70;9.45;;;;;;;9.34;92.23;101333.33;1790020;78;27695;-79
2022/11/03 08:34:23;;;;;;;21.50;9.23;;;;;;;9.40;91.98;101331.87;1786365;78;26553;-80
2022/11/03 08:36:49;;;;;;;18.90;9.63;;;;;;;9.46;91.99;101334.38;1788024;79;25920;-79
2022/11/03 08:39:16;;;;;;;20.92;9.13;;;;;;;9.50;91.96;101330.38;1784524;78;25827;-79
2022/11/03 08:41:42;;;;;;;19.52;9.60;;;;;;;9.56;92.15;101331.09;1789187;78;25786;-80
2022/11/03 08:44:08;;;;;;;18.77;8.88;;;;;;;9.63;91.94;101336.11;1800453;78;27449;-79
2022/11/03 08:46:35;;;;;;;21.87;10.05;;;;;;;9.67;91.59;101325.42;1794247;78;26073;-79
2022/11/03 08:49:01;;;;;;;16.97;9.55;;;;;;;9.72;91.64;101329.30;1778980;79;25823;-79
2022/11/03 08:51:28;;;;;;;14.53;8.95;;;;;;;9.77;91.56;101329.63;1784561;79;25967;-80
2022/11/03 08:53:54;;;;;;;17.85;9.28;;;;;;;9.83;91.45;101330.33;1787347;78;25866;-80
2022/11/03 08:56:21;;;;;;;20.80;9.30;;;;;;;9.90;91.55;101328.66;1795747;77;27517;-80
2022/11/03 08:58:47;;;;;;;18.48;9.68;;;;;;;9.95;91.37;101329.00;1800117;78;25801;-80
2022/11/03 09:01:14;;;;;;;19.73;8.80;;;;;;;9.99;91.03;101319.64;1786090;79;26446;-79
2022/11/03 09:03:40;;;;;;;18.42;9.25;;;;;;;10.04;91.14;101324.01;1793097;78;25275;-79
2022/11/03 09:06:07;;;;;;;15.38;8.28;;;;;;;10.12;91.20;101323.69;1791759;78;25761;-79
2022/11/03 09:08:33;;;;;;;19.32;10.43;;;;;;;10.17;90.88;101326.22;1794624;78;27607;-79
2022/11/03 09:11:00;;;;;;;20.15;8.48;;;;;;;10.23;90.93;101332.24;1804140;78;26381;-80
2022/11/03 09:13:27;;;;;;;15.35;8.43;;;;;;;10.29;90.79;101328.89;1802248;78;25867;-79
2022/11/03 09:15:53;;;;;;;19.62;7.60;;;;;;;10.34;90.76;101326.56;1792115;78;25778;-80
2022/11/03 09:18:19;;;;;;;11.00;7.25;;;;;;;10.40;90.38;101325.05;1808826;78;25924;-79
2022/11/03 09:20:45;;;;;;;17.05;7.45;;;;;;;10.42;89.73;101323.03;1808774;78;27530;-80
2022/11/03 09:23:12;;;;;;;13.08;7.53;;;;;;;10.44;89.52;101323.70;1802466;78;25811;-79
2022/11/03 09:25:38;;;;;;;18.12;8.18;;;;;;;10.46;89.40;101323.88;1796085;78;25958;-80
2022/11/03 09:28:04;;;;;;;15.58;7.55;;;;;;;10.50;89.45;101318.50;1796701;78;25917;-79
2022/11/03 09:30:31;;;;;;;18.27;7.03;;;;;;;10.56;89.51;101317.83;1846634;76;26478;-79
2022/11/03 09:32:57;;;;;;;13.38;6.80;;;;;;;10.61;89.54;101311.47;1839782;77;27412;-81
2022/11/03 09:35:23;;;;;;;16.52;6.12;;;;;;;10.67;89.45;101312.65;1835088;77;25806;-79
2022/11/03 09:37:49;;;;;;;15.25;5.95;;;;;;;10.73;89.32;101305.27;1837164;77;25903;-79
2022/11/03 09:40:16;;;;;;;17.73;5.50;;;;;;;10.78;88.70;101304.23;1830835;77;26040;-80
2022/11/03 09:42:43;;;;;;;10.80;5.37;;;;;;;10.82;88.60;101301.04;1819413;75;26665;-79
2022/11/03 09:45:10;;;;;;;14.87;5.95;;;;;;;10.90;89.03;101307.40;1807470;77;28280;-81
2022/11/03 09:47:40;;;;;;;11.12;5.90;;;;;;;10.98;88.74;101306.03;1804370;78;25995;-80
2022/11/03 09:50:18;;;;;;;13.93;5.08;;;;;;;11.05;88.57;101301.16;1822557;77;26344;-80
2022/11/03 09:52:47;;;;;;;14.25;6.15;;;;;;;11.11;87.88;101300.96;1822829;77;25814;-80
2022/11/03 09:55:24;;;;;;;11.05;5.37;;;;;;;11.17;87.75;101298.42;1814799;78;25814;-80
2022/11/03 09:57:54;;;;;;;14.03;4.67;;;;;;;11.21;87.30;101299.75;1810338;78;28828;-80
2022/11/03 10:00:22;;;;;;;11.15;3.95;;;;;;;11.27;86.96;101299.58;1807882;78;25713;-80
2022/11/03 10:02:50;;;;;;;7.22;3.58;;;;;;;11.29;86.87;101294.87;1821741;78;25801;-80
2022/11/03 10:05:25;;;;;;;19.70;3.52;;;;;;;11.34;86.53;101294.66;1816767;78;26153;-80
2022/11/03 10:07:57;;;;;;;12.82;3.55;;;;;;;11.39;85.90;101286.09;1818982;78;25931;-80
2022/11/03 10:10:26;;;;;;;14.73;4.17;;;;;;;11.43;85.93;101284.23;1807803;78;26083;-79
2022/11/03 10:12:52;;;;;;;11.45;4.90;;;;;;;11.47;85.52;101282.86;1807679;78;25807;-80
2022/11/03 10:15:22;;;;;;;9.68;3.87;;;;;;;11.53;85.87;101274.61;1816672;78;25816;-79
2022/11/03 10:17:49;;;;;;;14.00;4.87;;;;;;;11.59;85.88;101280.10;1810220;78;26295;-80
2022/11/03 10:20:19;;;;;;;14.50;4.47;;;;;;;11.65;85.94;101273.22;1824913;78;25918;-80
2022/11/03 10:22:52;;;;;;;14.93;4.00;;;;;;;11.71;85.88;101271.19;1814340;78;28188;-80
2022/11/03 10:25:41;;;;;;;16.50;4.00;;;;;;;11.76;85.02;101267.98;1806589;78;25843;-80
2022/11/03 10:28:15;;;;;;;11.93;3.90;;;;;;;11.79;84.91;101267.60;1818244;78;25753;-79
2022/11/03 10:31:05;;;;;;;10.75;4.03;;;;;;;11.84;84.64;101265.23;1838660;76;26736;-80
2022/11/03 10:33:36;;;;;;;11.05;5.17;;;;;;;11.85;84.40;101266.38;1788222;78;26396;-80
2022/11/03 10:36:16;;;;;;;14.60;4.60;;;;;;;11.85;84.44;101269.06;1830346;77;27448;-80
2022/11/03 10:38:43;;;;;;;11.65;4.10;;;;;;;11.86;83.93;101266.72;1801514;78;25768;-79
2022/11/03 10:41:14;;;;;;;10.98;4.05;;;;;;;11.88;83.99;101267.37;1821795;77;25253;-78
2022/11/03 10:43:43;;;;;;;8.88;3.22;;;;;;;11.91;83.72;101258.14;1822635;77;25797;-79
2022/11/03 10:46:19;;;;;;;17.52;4.00;;;;;;;11.96;83.98;101257.91;1824122;77;26499;-79
2022/11/03 10:49:12;;;;;;;14.33;4.15;;;;;;;11.99;83.57;101253.54;1816514;78;27415;-78
2022/11/03 10:51:41;;;;;;;13.40;3.62;;;;;;;12.02;83.53;101249.13;1798206;78;26163;-78
2022/11/03 10:54:15;;;;;;;11.63;3.83;;;;;;;12.08;83.20;101251.09;1841565;76;25824;-78
2022/11/03 10:56:43;;;;;;;8.03;3.47;;;;;;;12.11;83.03;101242.69;1840827;76;25896;-79
2022/11/03 10:59:20;;;;;;;10.72;2.90;;;;;;;12.17;83.19;101237.09;1831412;77;25903;-79
2022/11/03 11:01:47;;;;;;;14.45;3.60;;;;;;;12.21;82.65;101237.08;1805078;78;27583;-79
2022/11/03 11:04:19;;;;;;;11.90;3.85;;;;;;;12.25;82.89;101234.35;1809083;78;25815;-78
2022/11/03 11:06:46;;;;;;;12.37;3.08;;;;;;;12.29;82.24;101231.62;1807863;78;25964;-78
2022/11/03 11:09:24;;;;;;;12.05;3.10;;;;;;;12.32;81.53;101233.92;1800033;78;26368;-79
2022/11/03 11:12:20;;;;;;;8.98;2.83;;;;;;;12.33;81.20;101228.89;1839959;77;25796;-79
2022/11/03 11:15:01;;;;;;;8.00;2.40;;;;;;;12.35;81.28;101225.02;1836228;76;27537;-78
2022/11/03 11:17:40;;;;;;;;;;;;;;;12.40;81.08;101221.78;1843264;75;25729;-79
2022/11/03 11:20:30;;;;;;;15.40;3.27;;;;;;;12.41;80.61;101216.72;1829876;77;25805;-78
2022/11/03 11:23:28;;;;;;;11.08;3.62;;;;;;;12.43;80.61;101216.02;1805216;78;25721;-79
2022/11/03 11:26:15;;;;;;;9.98;2.60;;;;;;;12.45;80.23;101210.45;1808458;78;25735;-79
2022/11/03 11:28:46;;;;;;;9.58;3.02;;;;;;;12.46;78.94;101208.11;1810460;78;27562;-80
2022/11/03 11:31:56;;;;;;;7.73;2.00;;;;;;;12.45;79.61;101204.58;1807614;78;26316;-79
2022/11/03 11:34:37;;;;;;;7.80;2.58;;;;;;;12.47;79.80;101198.51;1805196;78;25814;-80
2022/11/03 11:37:12;;;;;;;10.13;2.55;;;;;;;12.52;79.94;101197.46;1804485;78;25838;-79
2022/11/03 11:39:43;;;;;;;10.70;2.72;;;;;;;12.57;80.05;101191.53;1823116;78;25304;-79
2022/11/03 11:42:18;;;;;;;10.55;2.22;;;;;;;12.60;79.03;101186.61;1822115;76;27428;-79
2022/11/03 11:44:57;;;;;;;5.22;2.27;;;;;;;12.63;78.92;101186.76;1818704;78;26457;-79
2022/11/03 11:47:43;;;;;;;14.15;2.62;;;;;;;12.63;78.30;101183.56;1821444;78;26352;-80
2022/11/03 11:50:22;;;;;;;10.15;2.42;;;;;;;12.65;78.62;101174.80;1801744;78;26570;-79
2022/11/03 11:53:02;;;;;;;13.32;2.65;;;;;;;12.71;78.91;101175.40;1800648;78;25715;-79
2022/11/03 11:55:40;;;;;;;7.90;2.40;;;;;;;12.77;78.70;101169.77;1817134;78;27460;-80
2022/11/03 11:58:27;;;;;;;5.87;1.50;;;;;;;12.81;78.32;101170.56;1808894;78;26152;-79
2022/11/03 12:00:58;;;;;;;10.70;2.20;;;;;;;12.84;77.26;101163.98;1806323;78;25825;-79
2022/11/03 12:03:30;;;;;;;4.90;1.72;;;;;;;12.88;76.98;101163.42;1802929;78;25449;-79